• Join FlightAware (Why Join?)
  • Login
  • US Flag 
09:16PM EST


 

Airport Tracker/Info


-or-


 

Live Flight TrackerFlight Track Log ✈ TRS18 ✈ 19-Apr-2013 ✈ KATL - KMCO

Flight Track Log - Related Links

Times and Time Zones

All times are in EDT time to prevent confusion due to time zone crossing. See the TRS18 flight status page for this flight to view local times or setup timezone preferences in your user account.

Time Position Orientation Groundspeed Altitude Reporting Facility
EDT Latitude Longitude Course Direction KTS MPH feet Rate Location/Type
10:41PM 33.6333 -84.4833 168° South 162 186 3,400  Level Atlanta TRACON
10:42PM 33.6333 -84.5500 270° West 230 265 7,000 3,840 Climbing Atlanta TRACON
10:43PM 33.6333 -84.6333 270° West 250 288 11,100 3,300 Climbing Atlanta TRACON
10:44PM 33.5667 -84.7000 220° Southwest 320 368 14,000 840 Climbing Atlanta TRACON
10:46PM 33.2776 -84.2402 168° South  Level FlightAware Approximate
10:46PM 33.3461 -84.6331 166° South 335 386 14,100  Level Atlanta Center
10:47PM 33.2756 -84.5358 131° Southeast 351 404 15,200 2,100 Climbing Atlanta Center
10:48PM 33.2028 -84.4411 133° Southeast 375 432 18,300 3,300 Climbing Atlanta Center
10:49PM 33.1258 -84.3389 132° Southeast 394 453 21,900 3,000 Climbing Atlanta Center
10:50PM 33.0469 -84.2369 133° Southeast 406 467 24,300 2,760 Climbing Atlanta Center
10:51PM 32.9675 -84.1578 140° Southeast 411 473 27,500 2,400 Climbing Atlanta Center
10:52PM 32.8675 -84.1206 163° South 385 443 29,200 1,620 Climbing Atlanta Center
10:53PM 32.7631 -84.0758 160° South 385 443 30,800 1,620 Climbing Atlanta Center
10:54PM 32.6544 -84.0364 163° South 396 456 32,500 1,800 Climbing Atlanta Center
10:55PM 32.5461 -83.9894 160° South 408 470 34,400 1,920 Climbing Atlanta Center
10:56PM 32.4417 -83.9453 160° South 408 470 36,400 1,740 Climbing Atlanta Center
10:57PM 32.3350 -83.9036 162° South 403 464 37,900 1,200 Climbing Atlanta Center
10:58PM 32.2244 -83.8572 160° South 403 464 38,900 840 Climbing Atlanta Center
10:59PM 32.1136 -83.8133 161° South 408 470 39,600 660 Climbing Atlanta Center
11:00PM 31.9989 -83.7644 160° South 420 483 40,300 720 Climbing Atlanta Center
11:01PM 31.8944 -83.7197 160° South 430 495 41,000 360 Climbing Jacksonville Center
11:02PM 31.7778 -83.6697 160° South 447 514 41,000  Level Jacksonville Center
11:03PM 31.6656 -83.6006 152° Southeast 452 520 41,000  Level Jacksonville Center
11:04PM 31.5614 -83.5411 154° Southeast 457 526 41,000  Level Jacksonville Center
11:05PM 31.4511 -83.4722 152° Southeast 457 526 41,000  Level Jacksonville Center
11:06PM 31.3428 -83.4058 152° Southeast 445 512 41,000  Level Jacksonville Center
11:07PM 31.2344 -83.3397 152° Southeast 445 512 41,000 -480 Level Jacksonville Center
11:08PM 31.1242 -83.2689 151° Southeast 445 512 40,100 -1,140 Descending Jacksonville Center
11:09PM 31.0075 -83.2003 153° Southeast 451 519 38,800 -1,440 Descending Jacksonville Center
11:10PM 30.8928 -83.1297 152° Southeast 458 527 37,300 -1,500 Descending Jacksonville Center
11:11PM 30.7739 -83.0544 151° Southeast 450 518 35,800 -1,440 Descending Jacksonville Center
11:12PM 30.6611 -82.9867 153° Southeast 450 518 34,500 -1,200 Descending Jacksonville Center
11:13PM 30.5464 -82.9142 151° Southeast 460 529 33,500 -1,020 Descending Jacksonville Center
11:14PM 30.4294 -82.8469 154° Southeast 460 529 32,500 -1,020 Descending Jacksonville Center
11:15PM 30.3167 -82.7772 152° Southeast 465 535 31,500 -1,080 Descending Jacksonville Center
11:16PM 30.2039 -82.7122 154° Southeast 465 535 30,400 -1,080 Descending Jacksonville Center
11:17PM 30.0950 -82.6453 152° Southeast 453 521 29,400 -900 Descending Jacksonville Center
11:18PM 29.9989 -82.5881 153° Southeast 448 516 28,600 -900 Descending Jacksonville Center
11:19PM 29.8944 -82.5236 152° Southeast 438 504 27,600 -1,080 Descending Jacksonville Center
11:20PM 29.7939 -82.4667 154° Southeast 420 483 26,500 -1,080 Descending Jacksonville Center
11:21PM 29.6914 -82.4072 153° Southeast 408 470 25,500 -1,020 Descending Jacksonville Center
11:22PM 29.5931 -82.3503 153° Southeast 403 464 24,500 -1,020 Descending Jacksonville Center
11:23PM 29.4947 -82.2889 151° Southeast 403 464 23,500 -1,200 Descending Jacksonville Center
11:24PM 29.3983 -82.2347 154° Southeast 398 458 22,100 -1,740 Descending Jacksonville Center
11:25PM 29.3042 -82.1781 152° Southeast 392 451 20,100 -2,040 Descending Jacksonville Center
11:26PM 29.2142 -82.1264 153° Southeast 379 436 18,100 -2,100 Descending Jacksonville Center
11:27PM 29.1242 -82.0750 153° Southeast 367 422 16,000 -2,100 Descending Jacksonville Center
11:28PM 29.0403 -82.0258 153° Southeast 357 411 14,000 -1,980 Descending Jacksonville Center
11:29PM 28.9586 -81.9767 152° Southeast 346 398 12,100 -1,560 Descending Jacksonville Center
11:30PM 28.8747 -81.9228 151° Southeast 331 381 10,900 -600 Descending Jacksonville Center
11:31PM 28.8303 -81.8450 123° Southeast 295 339 10,900 -660 Level Jacksonville Center
11:32PM 28.8167 -81.8167 119° Southeast 283 326 10,100 -1,860 Descending Orlando TRACON
11:32PM 28.7833 -81.7500 120° Southeast 292 336 8,700 -1,500 Descending Orlando TRACON
11:34PM 28.7500 -81.6500 111° Southeast 292 336 7,200 -1,320 Descending Orlando TRACON
11:35PM 28.7167 -81.5667 115° Southeast 286 329 6,000 -600 Descending Orlando TRACON
11:36PM 28.6833 -81.5000 120° Southeast 259 298 6,000 -180 Level Orlando TRACON
11:37PM 28.6500 -81.4333 120° Southeast 243 280 5,700 -1,020 Descending Orlando TRACON
11:38PM 28.6000 -81.3667 130° Southeast 225 259 4,000 -1,620 Descending Orlando TRACON
11:39PM 28.5667 -81.3167 127° Southeast 221 254 2,500 -1,080 Descending Orlando TRACON
11:40PM 28.5333 -81.3000 156° South 146 168 1,900 -660 Descending Orlando TRACON
11:41PM 28.5000 -81.3000 180° South 122 140 1,200 -600 Descending Orlando TRACON
11:42PM 28.4667 -81.3000 180° South 112 129 700 -540 Descending Orlando TRACON
11:44PM 28.4294 -81.3090 180° South  Level Estimated
11:51PM 28.4294 -81.3090 180° South  Level Estimated
11:52PM 28.4294 -81.3090 180° South  Level Estimated
11:53PM 28.4294 -81.3090 180° South  Level Estimated